sensor_id;sensor_type;location;lat;lon;timestamp;P1;durP1;ratioP1;P2;durP2;ratioP2
79761;SDS011;69249;42.122;24.734;2023-05-07T00:01:45;11.40;;;5.47;;
79761;SDS011;69249;42.122;24.734;2023-05-07T00:04:11;12.57;;;5.72;;
79761;SDS011;69249;42.122;24.734;2023-05-07T00:06:36;9.60;;;5.70;;
79761;SDS011;69249;42.122;24.734;2023-05-07T00:09:02;10.10;;;6.30;;
79761;SDS011;69249;42.122;24.734;2023-05-07T00:11:29;18.92;;;8.02;;
79761;SDS011;69249;42.122;24.734;2023-05-07T00:13:55;14.32;;;7.18;;
79761;SDS011;69249;42.122;24.734;2023-05-07T00:16:20;15.95;;;7.38;;
79761;SDS011;69249;42.122;24.734;2023-05-07T00:18:46;12.15;;;6.03;;
79761;SDS011;69249;42.122;24.734;2023-05-07T00:21:12;9.98;;;5.15;;
79761;SDS011;69249;42.122;24.734;2023-05-07T00:23:37;7.53;;;5.38;;
79761;SDS011;69249;42.122;24.734;2023-05-07T00:26:03;9.35;;;5.18;;
79761;SDS011;69249;42.122;24.734;2023-05-07T00:28:29;6.35;;;4.55;;
79761;SDS011;69249;42.122;24.734;2023-05-07T00:30:55;7.47;;;4.95;;
79761;SDS011;69249;42.122;24.734;2023-05-07T00:33:21;8.15;;;4.85;;
79761;SDS011;69249;42.122;24.734;2023-05-07T00:35:47;6.18;;;4.20;;
79761;SDS011;69249;42.122;24.734;2023-05-07T00:38:13;7.15;;;4.45;;
79761;SDS011;69249;42.122;24.734;2023-05-07T00:40:38;6.50;;;4.47;;
79761;SDS011;69249;42.122;24.734;2023-05-07T00:43:04;5.80;;;4.10;;
79761;SDS011;69249;42.122;24.734;2023-05-07T00:45:30;5.45;;;4.20;;
79761;SDS011;69249;42.122;24.734;2023-05-07T00:47:56;5.25;;;4.40;;
79761;SDS011;69249;42.122;24.734;2023-05-07T00:50:23;5.68;;;4.03;;
79761;SDS011;69249;42.122;24.734;2023-05-07T00:52:50;6.00;;;4.68;;
79761;SDS011;69249;42.122;24.734;2023-05-07T00:55:15;6.97;;;4.18;;
79761;SDS011;69249;42.122;24.734;2023-05-07T00:57:42;5.55;;;3.97;;
79761;SDS011;69249;42.122;24.734;2023-05-07T01:00:08;7.18;;;4.07;;
79761;SDS011;69249;42.122;24.734;2023-05-07T01:02:35;6.93;;;4.63;;
79761;SDS011;69249;42.122;24.734;2023-05-07T01:05:01;4.95;;;4.22;;
79761;SDS011;69249;42.122;24.734;2023-05-07T01:07:31;6.88;;;4.07;;
79761;SDS011;69249;42.122;24.734;2023-05-07T01:09:57;8.52;;;4.68;;
79761;SDS011;69249;42.122;24.734;2023-05-07T01:12:24;5.32;;;4.10;;
79761;SDS011;69249;42.122;24.734;2023-05-07T01:14:50;4.43;;;4.03;;
79761;SDS011;69249;42.122;24.734;2023-05-07T01:17:17;4.57;;;4.18;;
79761;SDS011;69249;42.122;24.734;2023-05-07T01:19:42;6.32;;;4.00;;
79761;SDS011;69249;42.122;24.734;2023-05-07T01:22:10;5.47;;;4.32;;
79761;SDS011;69249;42.122;24.734;2023-05-07T01:24:36;6.78;;;4.00;;
79761;SDS011;69249;42.122;24.734;2023-05-07T01:27:03;4.38;;;3.90;;
79761;SDS011;69249;42.122;24.734;2023-05-07T01:29:28;5.38;;;4.43;;
79761;SDS011;69249;42.122;24.734;2023-05-07T01:31:56;4.93;;;4.03;;
79761;SDS011;69249;42.122;24.734;2023-05-07T01:34:24;5.30;;;4.80;;
79761;SDS011;69249;42.122;24.734;2023-05-07T01:36:52;8.82;;;4.07;;
79761;SDS011;69249;42.122;24.734;2023-05-07T01:39:18;5.68;;;4.22;;
79761;SDS011;69249;42.122;24.734;2023-05-07T01:41:44;8.10;;;4.60;;
79761;SDS011;69249;42.122;24.734;2023-05-07T01:44:11;6.30;;;4.57;;
79761;SDS011;69249;42.122;24.734;2023-05-07T01:46:38;5.03;;;4.13;;
79761;SDS011;69249;42.122;24.734;2023-05-07T01:49:04;5.60;;;4.53;;
79761;SDS011;69249;42.122;24.734;2023-05-07T01:51:30;6.97;;;4.15;;
79761;SDS011;69249;42.122;24.734;2023-05-07T01:53:56;6.78;;;4.78;;
79761;SDS011;69249;42.122;24.734;2023-05-07T01:56:23;10.40;;;4.85;;
79761;SDS011;69249;42.122;24.734;2023-05-07T01:58:49;7.20;;;5.57;;
79761;SDS011;69249;42.122;24.734;2023-05-07T02:01:16;7.40;;;5.07;;
79761;SDS011;69249;42.122;24.734;2023-05-07T02:03:41;7.10;;;5.53;;
79761;SDS011;69249;42.122;24.734;2023-05-07T02:06:07;6.18;;;5.00;;
79761;SDS011;69249;42.122;24.734;2023-05-07T02:08:33;6.10;;;5.03;;
79761;SDS011;69249;42.122;24.734;2023-05-07T02:10:58;7.80;;;5.05;;
79761;SDS011;69249;42.122;24.734;2023-05-07T02:13:25;9.38;;;5.20;;
79761;SDS011;69249;42.122;24.734;2023-05-07T02:15:53;9.20;;;5.57;;
79761;SDS011;69249;42.122;24.734;2023-05-07T02:18:19;7.90;;;5.47;;
79761;SDS011;69249;42.122;24.734;2023-05-07T02:20:45;6.60;;;5.65;;
79761;SDS011;69249;42.122;24.734;2023-05-07T02:23:10;7.32;;;5.55;;
79761;SDS011;69249;42.122;24.734;2023-05-07T02:25:36;9.68;;;5.80;;
79761;SDS011;69249;42.122;24.734;2023-05-07T02:28:02;8.60;;;5.70;;
79761;SDS011;69249;42.122;24.734;2023-05-07T02:30:28;10.30;;;5.88;;
79761;SDS011;69249;42.122;24.734;2023-05-07T02:32:53;9.18;;;5.82;;
79761;SDS011;69249;42.122;24.734;2023-05-07T02:35:19;13.98;;;6.55;;
79761;SDS011;69249;42.122;24.734;2023-05-07T02:37:45;10.65;;;6.25;;
79761;SDS011;69249;42.122;24.734;2023-05-07T02:40:11;8.25;;;6.35;;
79761;SDS011;69249;42.122;24.734;2023-05-07T02:42:37;8.82;;;6.40;;
79761;SDS011;69249;42.122;24.734;2023-05-07T02:45:02;7.82;;;6.10;;
79761;SDS011;69249;42.122;24.734;2023-05-07T02:47:29;7.00;;;6.30;;
79761;SDS011;69249;42.122;24.734;2023-05-07T02:49:54;9.30;;;6.95;;
79761;SDS011;69249;42.122;24.734;2023-05-07T02:52:20;9.70;;;6.97;;
79761;SDS011;69249;42.122;24.734;2023-05-07T02:54:46;12.05;;;7.20;;
79761;SDS011;69249;42.122;24.734;2023-05-07T02:57:12;7.80;;;6.97;;
79761;SDS011;69249;42.122;24.734;2023-05-07T02:59:38;8.07;;;6.40;;
79761;SDS011;69249;42.122;24.734;2023-05-07T03:02:03;11.27;;;7.05;;
79761;SDS011;69249;42.122;24.734;2023-05-07T03:04:29;9.30;;;6.90;;
79761;SDS011;69249;42.122;24.734;2023-05-07T03:06:55;7.55;;;6.85;;
79761;SDS011;69249;42.122;24.734;2023-05-07T03:09:20;10.18;;;6.63;;
79761;SDS011;69249;42.122;24.734;2023-05-07T03:11:46;8.63;;;6.80;;
79761;SDS011;69249;42.122;24.734;2023-05-07T03:14:12;8.40;;;7.00;;
79761;SDS011;69249;42.122;24.734;2023-05-07T03:16:38;7.22;;;6.57;;
79761;SDS011;69249;42.122;24.734;2023-05-07T03:19:04;8.05;;;7.13;;
79761;SDS011;69249;42.122;24.734;2023-05-07T03:21:29;9.15;;;7.55;;
79761;SDS011;69249;42.122;24.734;2023-05-07T03:23:55;7.60;;;6.90;;
79761;SDS011;69249;42.122;24.734;2023-05-07T03:26:21;7.55;;;6.75;;
79761;SDS011;69249;42.122;24.734;2023-05-07T03:28:47;8.60;;;7.65;;
79761;SDS011;69249;42.122;24.734;2023-05-07T03:31:13;12.15;;;7.32;;
79761;SDS011;69249;42.122;24.734;2023-05-07T03:33:39;8.20;;;7.28;;
79761;SDS011;69249;42.122;24.734;2023-05-07T03:36:17;7.20;;;6.50;;
79761;SDS011;69249;42.122;24.734;2023-05-07T03:38:43;9.13;;;7.53;;
79761;SDS011;69249;42.122;24.734;2023-05-07T03:41:08;9.65;;;8.18;;
79761;SDS011;69249;42.122;24.734;2023-05-07T03:43:34;9.48;;;7.68;;
79761;SDS011;69249;42.122;24.734;2023-05-07T03:46:00;9.80;;;8.68;;
79761;SDS011;69249;42.122;24.734;2023-05-07T03:48:25;9.90;;;8.50;;
79761;SDS011;69249;42.122;24.734;2023-05-07T03:50:51;10.80;;;8.60;;
79761;SDS011;69249;42.122;24.734;2023-05-07T03:53:17;10.35;;;8.43;;
79761;SDS011;69249;42.122;24.734;2023-05-07T03:55:42;10.32;;;8.18;;
79761;SDS011;69249;42.122;24.734;2023-05-07T03:58:08;9.70;;;7.63;;
79761;SDS011;69249;42.122;24.734;2023-05-07T04:00:34;8.25;;;7.05;;
79761;SDS011;69249;42.122;24.734;2023-05-07T04:03:03;9.75;;;7.35;;
79761;SDS011;69249;42.122;24.734;2023-05-07T04:05:29;10.45;;;6.95;;
79761;SDS011;69249;42.122;24.734;2023-05-07T04:07:55;9.02;;;6.97;;
79761;SDS011;69249;42.122;24.734;2023-05-07T04:10:22;10.82;;;6.72;;
79761;SDS011;69249;42.122;24.734;2023-05-07T04:12:48;8.55;;;6.72;;
79761;SDS011;69249;42.122;24.734;2023-05-07T04:15:14;9.40;;;6.78;;
79761;SDS011;69249;42.122;24.734;2023-05-07T04:17:39;9.85;;;7.38;;
79761;SDS011;69249;42.122;24.734;2023-05-07T04:20:08;8.95;;;6.95;;
79761;SDS011;69249;42.122;24.734;2023-05-07T04:22:35;8.50;;;6.88;;
79761;SDS011;69249;42.122;24.734;2023-05-07T04:25:01;8.07;;;6.88;;
79761;SDS011;69249;42.122;24.734;2023-05-07T04:27:28;9.70;;;7.32;;
79761;SDS011;69249;42.122;24.734;2023-05-07T04:29:53;11.85;;;7.72;;
79761;SDS011;69249;42.122;24.734;2023-05-07T04:32:21;8.43;;;7.68;;
79761;SDS011;69249;42.122;24.734;2023-05-07T04:34:47;9.07;;;7.95;;
79761;SDS011;69249;42.122;24.734;2023-05-07T04:37:13;10.68;;;8.13;;
79761;SDS011;69249;42.122;24.734;2023-05-07T04:39:39;10.65;;;7.57;;
79761;SDS011;69249;42.122;24.734;2023-05-07T04:42:04;8.73;;;7.32;;
79761;SDS011;69249;42.122;24.734;2023-05-07T04:44:33;10.57;;;7.57;;
79761;SDS011;69249;42.122;24.734;2023-05-07T04:47:00;7.88;;;7.07;;
79761;SDS011;69249;42.122;24.734;2023-05-07T04:49:25;10.48;;;7.38;;
79761;SDS011;69249;42.122;24.734;2023-05-07T04:51:51;9.43;;;7.10;;
79761;SDS011;69249;42.122;24.734;2023-05-07T04:54:17;8.80;;;7.68;;
79761;SDS011;69249;42.122;24.734;2023-05-07T04:56:42;12.18;;;7.32;;
79761;SDS011;69249;42.122;24.734;2023-05-07T04:59:08;14.90;;;7.43;;
79761;SDS011;69249;42.122;24.734;2023-05-07T05:01:34;8.70;;;7.00;;
79761;SDS011;69249;42.122;24.734;2023-05-07T05:03:59;9.35;;;7.15;;
79761;SDS011;69249;42.122;24.734;2023-05-07T05:06:25;8.63;;;7.72;;
79761;SDS011;69249;42.122;24.734;2023-05-07T05:08:51;10.20;;;7.35;;
79761;SDS011;69249;42.122;24.734;2023-05-07T05:11:17;8.65;;;7.10;;
79761;SDS011;69249;42.122;24.734;2023-05-07T05:13:42;10.82;;;7.40;;
79761;SDS011;69249;42.122;24.734;2023-05-07T05:16:08;9.05;;;6.95;;
79761;SDS011;69249;42.122;24.734;2023-05-07T05:18:34;8.80;;;7.05;;
79761;SDS011;69249;42.122;24.734;2023-05-07T05:21:00;8.65;;;7.68;;
79761;SDS011;69249;42.122;24.734;2023-05-07T05:23:25;10.05;;;6.53;;
79761;SDS011;69249;42.122;24.734;2023-05-07T05:25:55;10.20;;;6.43;;
79761;SDS011;69249;42.122;24.734;2023-05-07T05:28:24;10.02;;;6.75;;
79761;SDS011;69249;42.122;24.734;2023-05-07T05:30:49;8.55;;;6.97;;
79761;SDS011;69249;42.122;24.734;2023-05-07T05:33:15;9.65;;;7.15;;
79761;SDS011;69249;42.122;24.734;2023-05-07T05:35:41;7.80;;;7.00;;
79761;SDS011;69249;42.122;24.734;2023-05-07T05:38:07;10.73;;;6.68;;
79761;SDS011;69249;42.122;24.734;2023-05-07T05:40:33;7.90;;;7.10;;
79761;SDS011;69249;42.122;24.734;2023-05-07T05:42:59;10.32;;;7.13;;
79761;SDS011;69249;42.122;24.734;2023-05-07T05:45:25;7.40;;;6.63;;
79761;SDS011;69249;42.122;24.734;2023-05-07T05:47:50;10.35;;;7.15;;
79761;SDS011;69249;42.122;24.734;2023-05-07T05:50:16;9.05;;;6.70;;
79761;SDS011;69249;42.122;24.734;2023-05-07T05:52:42;10.75;;;6.63;;
79761;SDS011;69249;42.122;24.734;2023-05-07T05:55:08;9.60;;;6.07;;
79761;SDS011;69249;42.122;24.734;2023-05-07T05:57:34;9.55;;;6.68;;
79761;SDS011;69249;42.122;24.734;2023-05-07T06:00:00;11.23;;;6.55;;
79761;SDS011;69249;42.122;24.734;2023-05-07T06:02:27;9.95;;;6.20;;
79761;SDS011;69249;42.122;24.734;2023-05-07T06:04:53;8.07;;;6.40;;
79761;SDS011;69249;42.122;24.734;2023-05-07T06:07:18;7.78;;;6.28;;
79761;SDS011;69249;42.122;24.734;2023-05-07T06:09:44;7.50;;;5.88;;
79761;SDS011;69249;42.122;24.734;2023-05-07T06:12:10;9.65;;;5.82;;
79761;SDS011;69249;42.122;24.734;2023-05-07T06:14:36;8.38;;;6.28;;
79761;SDS011;69249;42.122;24.734;2023-05-07T06:17:02;8.60;;;5.80;;
79761;SDS011;69249;42.122;24.734;2023-05-07T06:19:27;10.88;;;5.72;;
79761;SDS011;69249;42.122;24.734;2023-05-07T06:21:53;8.00;;;6.60;;
79761;SDS011;69249;42.122;24.734;2023-05-07T06:24:21;7.00;;;6.07;;
79761;SDS011;69249;42.122;24.734;2023-05-07T06:26:47;6.30;;;5.68;;
79761;SDS011;69249;42.122;24.734;2023-05-07T06:29:13;5.80;;;5.30;;
79761;SDS011;69249;42.122;24.734;2023-05-07T06:31:39;6.20;;;5.63;;
79761;SDS011;69249;42.122;24.734;2023-05-07T06:34:04;7.43;;;5.90;;
79761;SDS011;69249;42.122;24.734;2023-05-07T06:36:30;8.95;;;6.18;;
79761;SDS011;69249;42.122;24.734;2023-05-07T06:38:56;9.20;;;5.80;;
79761;SDS011;69249;42.122;24.734;2023-05-07T06:41:22;8.35;;;6.28;;
79761;SDS011;69249;42.122;24.734;2023-05-07T06:43:47;8.70;;;5.72;;
79761;SDS011;69249;42.122;24.734;2023-05-07T06:46:13;9.52;;;5.38;;
79761;SDS011;69249;42.122;24.734;2023-05-07T06:48:39;7.50;;;6.40;;
79761;SDS011;69249;42.122;24.734;2023-05-07T06:51:05;10.63;;;6.43;;
79761;SDS011;69249;42.122;24.734;2023-05-07T06:53:31;8.55;;;6.10;;
79761;SDS011;69249;42.122;24.734;2023-05-07T06:55:56;7.35;;;5.97;;
79761;SDS011;69249;42.122;24.734;2023-05-07T06:58:22;7.38;;;6.15;;
79761;SDS011;69249;42.122;24.734;2023-05-07T07:00:48;6.70;;;5.95;;
79761;SDS011;69249;42.122;24.734;2023-05-07T07:03:14;9.57;;;6.60;;
79761;SDS011;69249;42.122;24.734;2023-05-07T07:05:42;10.20;;;6.30;;
79761;SDS011;69249;42.122;24.734;2023-05-07T07:08:09;8.70;;;6.15;;
79761;SDS011;69249;42.122;24.734;2023-05-07T07:10:35;10.43;;;6.10;;
79761;SDS011;69249;42.122;24.734;2023-05-07T07:13:00;7.72;;;5.75;;
79761;SDS011;69249;42.122;24.734;2023-05-07T07:15:26;10.45;;;6.63;;
79761;SDS011;69249;42.122;24.734;2023-05-07T07:17:52;8.15;;;6.18;;
79761;SDS011;69249;42.122;24.734;2023-05-07T07:20:17;10.98;;;6.07;;
79761;SDS011;69249;42.122;24.734;2023-05-07T07:22:43;12.65;;;6.50;;
79761;SDS011;69249;42.122;24.734;2023-05-07T07:25:09;10.10;;;5.70;;
79761;SDS011;69249;42.122;24.734;2023-05-07T07:27:36;9.68;;;5.90;;
79761;SDS011;69249;42.122;24.734;2023-05-07T07:30:02;7.32;;;6.00;;
79761;SDS011;69249;42.122;24.734;2023-05-07T07:32:27;7.72;;;6.15;;
79761;SDS011;69249;42.122;24.734;2023-05-07T07:34:53;14.13;;;6.60;;
79761;SDS011;69249;42.122;24.734;2023-05-07T07:37:19;10.52;;;5.63;;
79761;SDS011;69249;42.122;24.734;2023-05-07T07:39:45;7.15;;;5.60;;
79761;SDS011;69249;42.122;24.734;2023-05-07T07:42:10;10.65;;;6.10;;
79761;SDS011;69249;42.122;24.734;2023-05-07T07:44:36;9.23;;;5.50;;
79761;SDS011;69249;42.122;24.734;2023-05-07T07:47:01;6.60;;;5.85;;
79761;SDS011;69249;42.122;24.734;2023-05-07T07:49:27;7.90;;;5.55;;
79761;SDS011;69249;42.122;24.734;2023-05-07T07:51:53;9.50;;;6.40;;
79761;SDS011;69249;42.122;24.734;2023-05-07T07:54:18;8.73;;;6.40;;
79761;SDS011;69249;42.122;24.734;2023-05-07T07:56:44;6.03;;;5.43;;
79761;SDS011;69249;42.122;24.734;2023-05-07T07:59:10;8.98;;;5.63;;
79761;SDS011;69249;42.122;24.734;2023-05-07T08:01:35;8.15;;;6.80;;
79761;SDS011;69249;42.122;24.734;2023-05-07T08:04:01;9.48;;;5.88;;
79761;SDS011;69249;42.122;24.734;2023-05-07T08:06:28;9.48;;;5.90;;
79761;SDS011;69249;42.122;24.734;2023-05-07T08:08:54;7.65;;;5.80;;
79761;SDS011;69249;42.122;24.734;2023-05-07T08:11:20;7.53;;;6.25;;
79761;SDS011;69249;42.122;24.734;2023-05-07T08:13:46;8.07;;;5.50;;
79761;SDS011;69249;42.122;24.734;2023-05-07T08:16:12;7.25;;;5.10;;
79761;SDS011;69249;42.122;24.734;2023-05-07T08:18:38;7.13;;;5.07;;
79761;SDS011;69249;42.122;24.734;2023-05-07T08:21:04;6.57;;;5.00;;
79761;SDS011;69249;42.122;24.734;2023-05-07T08:23:30;7.00;;;5.32;;
79761;SDS011;69249;42.122;24.734;2023-05-07T08:25:55;5.65;;;4.82;;
79761;SDS011;69249;42.122;24.734;2023-05-07T08:28:21;6.00;;;5.10;;
79761;SDS011;69249;42.122;24.734;2023-05-07T08:30:47;5.38;;;4.35;;
79761;SDS011;69249;42.122;24.734;2023-05-07T08:33:13;6.05;;;4.63;;
79761;SDS011;69249;42.122;24.734;2023-05-07T08:35:39;5.82;;;4.35;;
79761;SDS011;69249;42.122;24.734;2023-05-07T08:38:04;5.93;;;4.82;;
79761;SDS011;69249;42.122;24.734;2023-05-07T08:40:30;10.13;;;5.20;;
79761;SDS011;69249;42.122;24.734;2023-05-07T08:43:03;5.22;;;4.70;;
79761;SDS011;69249;42.122;24.734;2023-05-07T08:45:30;9.50;;;5.30;;
79761;SDS011;69249;42.122;24.734;2023-05-07T08:47:59;6.20;;;4.95;;
79761;SDS011;69249;42.122;24.734;2023-05-07T08:50:27;6.57;;;4.53;;
79761;SDS011;69249;42.122;24.734;2023-05-07T08:52:53;4.80;;;3.83;;
79761;SDS011;69249;42.122;24.734;2023-05-07T08:55:21;5.53;;;3.92;;
79761;SDS011;69249;42.122;24.734;2023-05-07T08:57:47;10.40;;;4.10;;
79761;SDS011;69249;42.122;24.734;2023-05-07T09:00:13;7.60;;;4.55;;
79761;SDS011;69249;42.122;24.734;2023-05-07T09:02:40;5.22;;;4.57;;
79761;SDS011;69249;42.122;24.734;2023-05-07T09:05:06;6.82;;;4.50;;
79761;SDS011;69249;42.122;24.734;2023-05-07T09:07:32;7.65;;;4.20;;
79761;SDS011;69249;42.122;24.734;2023-05-07T09:09:58;4.43;;;3.58;;
79761;SDS011;69249;42.122;24.734;2023-05-07T09:12:26;4.68;;;3.72;;
79761;SDS011;69249;42.122;24.734;2023-05-07T09:14:51;6.80;;;3.60;;
79761;SDS011;69249;42.122;24.734;2023-05-07T09:17:17;4.18;;;3.05;;
79761;SDS011;69249;42.122;24.734;2023-05-07T09:19:44;7.80;;;3.50;;
79761;SDS011;69249;42.122;24.734;2023-05-07T09:22:13;6.18;;;3.58;;
79761;SDS011;69249;42.122;24.734;2023-05-07T09:24:39;3.78;;;3.13;;
79761;SDS011;69249;42.122;24.734;2023-05-07T09:27:06;3.20;;;2.92;;
79761;SDS011;69249;42.122;24.734;2023-05-07T09:29:33;4.05;;;3.20;;
79761;SDS011;69249;42.122;24.734;2023-05-07T09:32:02;2.85;;;2.65;;
79761;SDS011;69249;42.122;24.734;2023-05-07T09:34:31;4.15;;;2.60;;
79761;SDS011;69249;42.122;24.734;2023-05-07T09:37:06;6.78;;;3.05;;
79761;SDS011;69249;42.122;24.734;2023-05-07T09:39:42;7.05;;;2.72;;
79761;SDS011;69249;42.122;24.734;2023-05-07T09:42:09;5.55;;;2.78;;
79761;SDS011;69249;42.122;24.734;2023-05-07T09:44:40;6.88;;;3.05;;
79761;SDS011;69249;42.122;24.734;2023-05-07T09:47:06;6.88;;;2.47;;
79761;SDS011;69249;42.122;24.734;2023-05-07T09:49:36;4.95;;;2.72;;
79761;SDS011;69249;42.122;24.734;2023-05-07T09:52:04;4.03;;;3.03;;
79761;SDS011;69249;42.122;24.734;2023-05-07T09:54:33;4.30;;;3.05;;
79761;SDS011;69249;42.122;24.734;2023-05-07T09:57:02;4.03;;;2.63;;
79761;SDS011;69249;42.122;24.734;2023-05-07T09:59:29;7.68;;;2.90;;
79761;SDS011;69249;42.122;24.734;2023-05-07T10:01:57;6.60;;;2.75;;
79761;SDS011;69249;42.122;24.734;2023-05-07T10:04:24;7.45;;;3.42;;
79761;SDS011;69249;42.122;24.734;2023-05-07T10:06:53;4.22;;;2.92;;
79761;SDS011;69249;42.122;24.734;2023-05-07T10:09:20;4.72;;;3.00;;
79761;SDS011;69249;42.122;24.734;2023-05-07T10:11:48;5.32;;;2.72;;
79761;SDS011;69249;42.122;24.734;2023-05-07T10:14:14;4.15;;;3.05;;
79761;SDS011;69249;42.122;24.734;2023-05-07T10:16:40;3.33;;;2.65;;
79761;SDS011;69249;42.122;24.734;2023-05-07T10:19:07;4.65;;;2.90;;
79761;SDS011;69249;42.122;24.734;2023-05-07T10:21:37;4.00;;;2.88;;
79761;SDS011;69249;42.122;24.734;2023-05-07T10:27:00;4.13;;;2.83;;
79761;SDS011;69249;42.122;24.734;2023-05-07T10:29:39;7.60;;;3.80;;
79761;SDS011;69249;42.122;24.734;2023-05-07T10:32:43;8.77;;;3.35;;
79761;SDS011;69249;42.122;24.734;2023-05-07T10:35:17;4.13;;;3.20;;
79761;SDS011;69249;42.122;24.734;2023-05-07T10:37:46;3.75;;;3.30;;
79761;SDS011;69249;42.122;24.734;2023-05-07T10:40:13;5.10;;;2.95;;
79761;SDS011;69249;42.122;24.734;2023-05-07T10:42:52;5.28;;;3.00;;
79761;SDS011;69249;42.122;24.734;2023-05-07T10:45:26;6.00;;;3.20;;
79761;SDS011;69249;42.122;24.734;2023-05-07T10:50:39;3.33;;;2.97;;
79761;SDS011;69249;42.122;24.734;2023-05-07T11:00:55;5.05;;;2.97;;
79761;SDS011;69249;42.122;24.734;2023-05-07T11:03:25;4.25;;;2.83;;
79761;SDS011;69249;42.122;24.734;2023-05-07T11:08:56;5.22;;;3.10;;
79761;SDS011;69249;42.122;24.734;2023-05-07T11:14:10;4.22;;;2.50;;
79761;SDS011;69249;42.122;24.734;2023-05-07T11:16:36;6.45;;;2.83;;
79761;SDS011;69249;42.122;24.734;2023-05-07T11:19:03;4.63;;;2.67;;
79761;SDS011;69249;42.122;24.734;2023-05-07T11:21:38;4.20;;;2.45;;
79761;SDS011;69249;42.122;24.734;2023-05-07T11:24:08;5.30;;;2.40;;
79761;SDS011;69249;42.122;24.734;2023-05-07T11:26:45;4.97;;;2.40;;
79761;SDS011;69249;42.122;24.734;2023-05-07T11:29:18;2.47;;;2.28;;
79761;SDS011;69249;42.122;24.734;2023-05-07T11:31:51;3.97;;;2.40;;
79761;SDS011;69249;42.122;24.734;2023-05-07T11:34:21;4.50;;;2.50;;
79761;SDS011;69249;42.122;24.734;2023-05-07T11:36:48;3.97;;;2.30;;
79761;SDS011;69249;42.122;24.734;2023-05-07T11:39:30;2.25;;;2.05;;
79761;SDS011;69249;42.122;24.734;2023-05-07T11:41:58;4.68;;;2.47;;
79761;SDS011;69249;42.122;24.734;2023-05-07T11:44:48;5.82;;;1.90;;
79761;SDS011;69249;42.122;24.734;2023-05-07T11:47:17;2.22;;;2.03;;
79761;SDS011;69249;42.122;24.734;2023-05-07T11:49:45;5.72;;;2.53;;
79761;SDS011;69249;42.122;24.734;2023-05-07T11:52:13;3.08;;;2.25;;
79761;SDS011;69249;42.122;24.734;2023-05-07T11:54:39;2.22;;;2.00;;
79761;SDS011;69249;42.122;24.734;2023-05-07T11:57:13;4.20;;;2.10;;
79761;SDS011;69249;42.122;24.734;2023-05-07T11:59:39;4.10;;;2.30;;
79761;SDS011;69249;42.122;24.734;2023-05-07T12:02:06;3.03;;;2.38;;
79761;SDS011;69249;42.122;24.734;2023-05-07T12:04:33;3.35;;;2.20;;
79761;SDS011;69249;42.122;24.734;2023-05-07T12:06:58;2.60;;;2.40;;
79761;SDS011;69249;42.122;24.734;2023-05-07T12:09:24;6.78;;;2.28;;
79761;SDS011;69249;42.122;24.734;2023-05-07T12:11:51;3.13;;;2.35;;
79761;SDS011;69249;42.122;24.734;2023-05-07T12:14:17;4.95;;;2.15;;
79761;SDS011;69249;42.122;24.734;2023-05-07T12:16:44;3.63;;;2.40;;
79761;SDS011;69249;42.122;24.734;2023-05-07T12:19:10;2.95;;;2.28;;
79761;SDS011;69249;42.122;24.734;2023-05-07T12:21:39;4.20;;;2.30;;
79761;SDS011;69249;42.122;24.734;2023-05-07T12:24:05;2.83;;;1.98;;
79761;SDS011;69249;42.122;24.734;2023-05-07T12:26:33;3.90;;;2.45;;
79761;SDS011;69249;42.122;24.734;2023-05-07T12:29:05;2.50;;;2.30;;
79761;SDS011;69249;42.122;24.734;2023-05-07T12:31:31;3.05;;;2.30;;
79761;SDS011;69249;42.122;24.734;2023-05-07T12:33:57;3.65;;;2.30;;
79761;SDS011;69249;42.122;24.734;2023-05-07T12:36:23;6.65;;;2.55;;
79761;SDS011;69249;42.122;24.734;2023-05-07T12:38:49;2.40;;;2.20;;
79761;SDS011;69249;42.122;24.734;2023-05-07T12:41:15;4.00;;;2.60;;
79761;SDS011;69249;42.122;24.734;2023-05-07T12:43:43;4.22;;;2.47;;
79761;SDS011;69249;42.122;24.734;2023-05-07T12:46:11;2.55;;;2.35;;
79761;SDS011;69249;42.122;24.734;2023-05-07T12:48:43;7.00;;;2.78;;
79761;SDS011;69249;42.122;24.734;2023-05-07T12:51:10;2.50;;;2.25;;
79761;SDS011;69249;42.122;24.734;2023-05-07T12:53:41;3.20;;;2.60;;
79761;SDS011;69249;42.122;24.734;2023-05-07T12:56:07;5.85;;;2.60;;
79761;SDS011;69249;42.122;24.734;2023-05-07T12:58:34;4.78;;;2.58;;
79761;SDS011;69249;42.122;24.734;2023-05-07T13:01:03;3.45;;;2.38;;
79761;SDS011;69249;42.122;24.734;2023-05-07T13:03:31;5.10;;;2.47;;
79761;SDS011;69249;42.122;24.734;2023-05-07T13:06:02;4.00;;;2.58;;
79761;SDS011;69249;42.122;24.734;2023-05-07T13:08:38;2.92;;;2.50;;
79761;SDS011;69249;42.122;24.734;2023-05-07T13:11:07;2.72;;;2.50;;
79761;SDS011;69249;42.122;24.734;2023-05-07T13:13:34;3.45;;;2.60;;
79761;SDS011;69249;42.122;24.734;2023-05-07T13:16:02;3.28;;;2.50;;
79761;SDS011;69249;42.122;24.734;2023-05-07T13:18:31;4.88;;;2.47;;
79761;SDS011;69249;42.122;24.734;2023-05-07T13:20:58;3.33;;;2.58;;
79761;SDS011;69249;42.122;24.734;2023-05-07T13:23:24;6.82;;;2.88;;
79761;SDS011;69249;42.122;24.734;2023-05-07T13:25:50;4.20;;;2.45;;
79761;SDS011;69249;42.122;24.734;2023-05-07T13:28:17;2.63;;;2.42;;
79761;SDS011;69249;42.122;24.734;2023-05-07T13:30:43;3.13;;;2.35;;
79761;SDS011;69249;42.122;24.734;2023-05-07T13:33:09;2.78;;;2.50;;
79761;SDS011;69249;42.122;24.734;2023-05-07T13:35:35;3.15;;;2.40;;
79761;SDS011;69249;42.122;24.734;2023-05-07T13:38:00;4.50;;;2.20;;
79761;SDS011;69249;42.122;24.734;2023-05-07T13:40:26;5.55;;;2.58;;
79761;SDS011;69249;42.122;24.734;2023-05-07T13:42:52;2.50;;;2.30;;
79761;SDS011;69249;42.122;24.734;2023-05-07T13:45:18;6.10;;;2.65;;
79761;SDS011;69249;42.122;24.734;2023-05-07T13:47:44;3.22;;;2.60;;
79761;SDS011;69249;42.122;24.734;2023-05-07T13:50:10;7.00;;;2.72;;
79761;SDS011;69249;42.122;24.734;2023-05-07T13:52:42;3.58;;;2.50;;
79761;SDS011;69249;42.122;24.734;2023-05-07T13:55:15;2.58;;;2.35;;
79761;SDS011;69249;42.122;24.734;2023-05-07T13:57:44;6.18;;;2.35;;
79761;SDS011;69249;42.122;24.734;2023-05-07T14:00:11;4.25;;;2.17;;
79761;SDS011;69249;42.122;24.734;2023-05-07T14:02:38;2.63;;;2.42;;
79761;SDS011;69249;42.122;24.734;2023-05-07T14:05:04;2.92;;;2.28;;
79761;SDS011;69249;42.122;24.734;2023-05-07T14:07:29;3.35;;;2.47;;
79761;SDS011;69249;42.122;24.734;2023-05-07T14:09:56;4.40;;;2.70;;
79761;SDS011;69249;42.122;24.734;2023-05-07T14:12:22;8.48;;;2.50;;
79761;SDS011;69249;42.122;24.734;2023-05-07T14:14:48;3.90;;;2.33;;
79761;SDS011;69249;42.122;24.734;2023-05-07T14:17:15;2.72;;;2.28;;
79761;SDS011;69249;42.122;24.734;2023-05-07T14:19:42;4.97;;;2.20;;
79761;SDS011;69249;42.122;24.734;2023-05-07T14:22:08;3.67;;;2.10;;
79761;SDS011;69249;42.122;24.734;2023-05-07T14:24:33;2.30;;;1.95;;
79761;SDS011;69249;42.122;24.734;2023-05-07T14:26:59;3.10;;;2.08;;
79761;SDS011;69249;42.122;24.734;2023-05-07T14:29:25;4.35;;;2.25;;
79761;SDS011;69249;42.122;24.734;2023-05-07T14:31:50;5.07;;;1.95;;
79761;SDS011;69249;42.122;24.734;2023-05-07T14:34:16;4.90;;;2.25;;
79761;SDS011;69249;42.122;24.734;2023-05-07T14:36:42;5.43;;;2.20;;
79761;SDS011;69249;42.122;24.734;2023-05-07T14:39:09;3.55;;;1.90;;
79761;SDS011;69249;42.122;24.734;2023-05-07T14:41:34;2.22;;;2.03;;
79761;SDS011;69249;42.122;24.734;2023-05-07T14:44:00;5.10;;;2.10;;
79761;SDS011;69249;42.122;24.734;2023-05-07T14:46:28;2.97;;;2.05;;
79761;SDS011;69249;42.122;24.734;2023-05-07T14:48:54;8.07;;;2.45;;
79761;SDS011;69249;42.122;24.734;2023-05-07T14:51:21;2.33;;;2.10;;